sensor_id;sensor_type;location;lat;lon;timestamp;pressure;altitude;pressure_sealevel;temperature;humidity
55576;BME280;41437;45.478;9.116;2022-08-04T00:01:07;99821.22;;;31.18;39.65
55576;BME280;41437;45.478;9.116;2022-08-04T00:04:13;99824.44;;;31.17;39.69
55576;BME280;41437;45.478;9.116;2022-08-04T00:07:25;99812.66;;;31.15;39.84
55576;BME280;41437;45.478;9.116;2022-08-04T00:10:32;99818.75;;;31.13;39.86
55576;BME280;41437;45.478;9.116;2022-08-04T00:13:37;99826.06;;;31.11;39.79
55576;BME280;41437;45.478;9.116;2022-08-04T00:16:42;99823.19;;;31.11;39.93
55576;BME280;41437;45.478;9.116;2022-08-04T00:19:46;99816.69;;;31.07;39.87
55576;BME280;41437;45.478;9.116;2022-08-04T00:22:51;99821.16;;;31.08;39.88
55576;BME280;41437;45.478;9.116;2022-08-04T00:25:52;99819.53;;;31.07;39.79
55576;BME280;41437;45.478;9.116;2022-08-04T00:28:55;99817.91;;;31.06;39.82
55576;BME280;41437;45.478;9.116;2022-08-04T00:32:00;99811.38;;;31.01;39.90
55576;BME280;41437;45.478;9.116;2022-08-04T00:35:04;99812.97;;;30.99;39.78
55576;BME280;41437;45.478;9.116;2022-08-04T00:38:07;99821.13;;;31.00;39.90
55576;BME280;41437;45.478;9.116;2022-08-04T00:41:18;99817.88;;;30.98;40.07
55576;BME280;41437;45.478;9.116;2022-08-04T00:44:29;99822.75;;;30.98;39.93
55576;BME280;41437;45.478;9.116;2022-08-04T00:47:47;99817.47;;;30.96;39.96
55576;BME280;41437;45.478;9.116;2022-08-04T00:51:02;99818.66;;;30.95;40.03
55576;BME280;41437;45.478;9.116;2022-08-04T00:54:11;99820.28;;;30.93;39.99
55576;BME280;41437;45.478;9.116;2022-08-04T00:57:29;99820.69;;;30.91;40.00
55576;BME280;41437;45.478;9.116;2022-08-04T01:00:37;99829.22;;;30.91;39.93
55576;BME280;41437;45.478;9.116;2022-08-04T01:03:49;99821.88;;;30.90;40.03
55576;BME280;41437;45.478;9.116;2022-08-04T01:07:14;99826.75;;;30.90;39.93
55576;BME280;41437;45.478;9.116;2022-08-04T01:10:30;99814.56;;;30.86;40.04
55576;BME280;41437;45.478;9.116;2022-08-04T01:14:04;99827.97;;;30.85;40.08
55576;BME280;41437;45.478;9.116;2022-08-04T01:17:19;99819.03;;;30.83;40.05
55576;BME280;41437;45.478;9.116;2022-08-04T01:20:24;99819.78;;;30.76;40.01
55576;BME280;41437;45.478;9.116;2022-08-04T01:23:45;99827.13;;;30.81;40.10
55576;BME280;41437;45.478;9.116;2022-08-04T01:26:52;99823.44;;;30.77;40.27
55576;BME280;41437;45.478;9.116;2022-08-04T01:29:58;99824.25;;;30.74;40.29
55576;BME280;41437;45.478;9.116;2022-08-04T01:33:04;99830.34;;;30.76;40.18
55576;BME280;41437;45.478;9.116;2022-08-04T01:36:10;99837.25;;;30.75;40.31
55576;BME280;41437;45.478;9.116;2022-08-04T01:39:13;99821.00;;;30.72;40.23
55576;BME280;41437;45.478;9.116;2022-08-04T01:42:35;99815.69;;;30.70;40.08
55576;BME280;41437;45.478;9.116;2022-08-04T01:45:40;99822.19;;;30.71;40.06
55576;BME280;41437;45.478;9.116;2022-08-04T01:48:44;99819.75;;;30.69;40.19
55576;BME280;41437;45.478;9.116;2022-08-04T01:51:48;99812.38;;;30.65;40.37
55576;BME280;41437;45.478;9.116;2022-08-04T01:54:50;99820.53;;;30.66;40.46
55576;BME280;41437;45.478;9.116;2022-08-04T01:57:52;99807.06;;;30.60;40.28
55576;BME280;41437;45.478;9.116;2022-08-04T02:00:57;99819.28;;;30.64;40.46
55576;BME280;41437;45.478;9.116;2022-08-04T02:04:01;99820.09;;;30.61;40.27
55576;BME280;41437;45.478;9.116;2022-08-04T02:07:16;99817.63;;;30.59;40.32
55576;BME280;41437;45.478;9.116;2022-08-04T02:10:26;99815.59;;;30.60;40.33
55576;BME280;41437;45.478;9.116;2022-08-04T02:13:33;99826.97;;;30.60;40.29
55576;BME280;41437;45.478;9.116;2022-08-04T02:16:43;99818.41;;;30.56;40.19
55576;BME280;41437;45.478;9.116;2022-08-04T02:20:03;99811.91;;;30.52;40.32
55576;BME280;41437;45.478;9.116;2022-08-04T02:23:08;99810.69;;;30.53;40.46
55576;BME280;41437;45.478;9.116;2022-08-04T02:26:12;99813.53;;;30.53;40.14
55576;BME280;41437;45.478;9.116;2022-08-04T02:29:20;99816.75;;;30.51;40.28
55576;BME280;41437;45.478;9.116;2022-08-04T02:32:25;99811.47;;;30.50;40.46
55576;BME280;41437;45.478;9.116;2022-08-04T02:35:27;99815.94;;;30.51;40.39
55576;BME280;41437;45.478;9.116;2022-08-04T02:38:46;99804.97;;;30.46;40.61
55576;BME280;41437;45.478;9.116;2022-08-04T02:41:55;99803.34;;;30.45;40.50
55576;BME280;41437;45.478;9.116;2022-08-04T02:44:58;99801.72;;;30.47;40.46
55576;BME280;41437;45.478;9.116;2022-08-04T02:48:01;99809.44;;;30.47;40.53
55576;BME280;41437;45.478;9.116;2022-08-04T02:51:04;99811.06;;;30.44;40.52
55576;BME280;41437;45.478;9.116;2022-08-04T02:54:06;99808.59;;;30.43;40.56
55576;BME280;41437;45.478;9.116;2022-08-04T02:57:12;99811.84;;;30.41;40.59
55576;BME280;41437;45.478;9.116;2022-08-04T03:00:15;99811.84;;;30.41;40.50
55576;BME280;41437;45.478;9.116;2022-08-04T03:03:24;99811.44;;;30.39;40.58
55576;BME280;41437;45.478;9.116;2022-08-04T03:10:25;99811.00;;;30.37;40.64
55576;BME280;41437;45.478;9.116;2022-08-04T03:13:38;99811.78;;;30.34;40.52
55576;BME280;41437;45.478;9.116;2022-08-04T03:17:06;99811.78;;;30.34;40.60
55576;BME280;41437;45.478;9.116;2022-08-04T03:28:01;99809.31;;;30.29;40.84
55576;BME280;41437;45.478;9.116;2022-08-04T03:31:56;99795.47;;;30.24;40.86
55576;BME280;41437;45.478;9.116;2022-08-04T03:35:15;99803.22;;;30.27;40.66
55576;BME280;41437;45.478;9.116;2022-08-04T03:38:46;99795.47;;;30.24;40.81
55576;BME280;41437;45.478;9.116;2022-08-04T03:42:08;99803.19;;;30.23;40.86
55576;BME280;41437;45.478;9.116;2022-08-04T03:49:04;99803.59;;;30.22;40.85
55576;BME280;41437;45.478;9.116;2022-08-04T03:52:22;99795.84;;;30.19;40.89
55576;BME280;41437;45.478;9.116;2022-08-04T03:55:45;99793.00;;;30.19;40.70
55576;BME280;41437;45.478;9.116;2022-08-04T03:58:59;99796.25;;;30.17;40.84
55576;BME280;41437;45.478;9.116;2022-08-04T04:06:18;99799.41;;;30.12;40.88
55576;BME280;41437;45.478;9.116;2022-08-04T04:10:11;99797.78;;;30.11;40.98
55576;BME280;41437;45.478;9.116;2022-08-04T04:13:28;99807.13;;;30.12;41.08
55576;BME280;41437;45.478;9.116;2022-08-04T04:16:45;99809.56;;;30.10;41.13
55576;BME280;41437;45.478;9.116;2022-08-04T04:19:54;99796.94;;;30.07;40.99
55576;BME280;41437;45.478;9.116;2022-08-04T04:23:14;99800.59;;;30.04;41.30
55576;BME280;41437;45.478;9.116;2022-08-04T04:26:37;99796.91;;;30.03;41.00
55576;BME280;41437;45.478;9.116;2022-08-04T04:33:32;99796.09;;;30.03;40.99
55576;BME280;41437;45.478;9.116;2022-08-04T04:36:47;99796.06;;;29.99;41.03
55576;BME280;41437;45.478;9.116;2022-08-04T04:40:05;99813.53;;;30.01;41.34
55576;BME280;41437;45.478;9.116;2022-08-04T04:43:23;99806.59;;;29.99;41.26
55576;BME280;41437;45.478;9.116;2022-08-04T04:46:37;99805.38;;;29.96;41.43
55576;BME280;41437;45.478;9.116;2022-08-04T04:49:48;99801.72;;;29.96;41.09
55576;BME280;41437;45.478;9.116;2022-08-04T04:52:55;99801.25;;;29.90;41.42
55576;BME280;41437;45.478;9.116;2022-08-04T04:56:03;99807.38;;;29.92;41.16
55576;BME280;41437;45.478;9.116;2022-08-04T04:59:10;99818.75;;;29.92;41.32
55576;BME280;41437;45.478;9.116;2022-08-04T05:02:40;99824.44;;;29.92;41.38
55576;BME280;41437;45.478;9.116;2022-08-04T05:06:05;99823.56;;;29.88;41.73
55576;BME280;41437;45.478;9.116;2022-08-04T05:09:17;99840.63;;;29.88;41.20
55576;BME280;41437;45.478;9.116;2022-08-04T05:12:40;99838.19;;;29.87;41.20
55576;BME280;41437;45.478;9.116;2022-08-04T05:15:46;99841.84;;;29.87;41.03
55576;BME280;41437;45.478;9.116;2022-08-04T05:18:56;99844.63;;;29.84;41.42
55576;BME280;41437;45.478;9.116;2022-08-04T05:22:07;99836.47;;;29.78;41.42
55576;BME280;41437;45.478;9.116;2022-08-04T05:25:16;99836.88;;;29.80;41.62
55576;BME280;41437;45.478;9.116;2022-08-04T05:28:24;99829.97;;;29.78;41.68
55576;BME280;41437;45.478;9.116;2022-08-04T05:31:31;99835.66;;;29.78;41.70
55576;BME280;41437;45.478;9.116;2022-08-04T05:34:39;99841.34;;;29.78;41.43
55576;BME280;41437;45.478;9.116;2022-08-04T05:37:45;99842.16;;;29.78;41.79
55576;BME280;41437;45.478;9.116;2022-08-04T05:40:51;99843.34;;;29.77;41.71
55576;BME280;41437;45.478;9.116;2022-08-04T05:43:54;99845.38;;;29.77;41.72
55576;BME280;41437;45.478;9.116;2022-08-04T05:46:57;99836.44;;;29.75;41.48
55576;BME280;41437;45.478;9.116;2022-08-04T05:49:59;99848.22;;;29.77;41.58
55576;BME280;41437;45.478;9.116;2022-08-04T05:53:04;99851.00;;;29.73;41.85
55576;BME280;41437;45.478;9.116;2022-08-04T05:56:07;99851.44;;;29.75;41.64
55576;BME280;41437;45.478;9.116;2022-08-04T05:59:10;99862.41;;;29.77;41.51
55576;BME280;41437;45.478;9.116;2022-08-04T06:02:13;99860.38;;;29.74;41.62
55576;BME280;41437;45.478;9.116;2022-08-04T06:05:17;99858.34;;;29.74;41.33
55576;BME280;41437;45.478;9.116;2022-08-04T06:08:21;99867.69;;;29.75;41.53
55576;BME280;41437;45.478;9.116;2022-08-04T06:11:26;99858.28;;;29.71;41.40
55576;BME280;41437;45.478;9.116;2022-08-04T06:14:31;99857.84;;;29.69;41.35
55576;BME280;41437;45.478;9.116;2022-08-04T06:17:44;99859.94;;;29.72;41.41
55576;BME280;41437;45.478;9.116;2022-08-04T06:20:47;99858.69;;;29.69;41.44
55576;BME280;41437;45.478;9.116;2022-08-04T06:23:54;99858.72;;;29.73;41.42
55576;BME280;41437;45.478;9.116;2022-08-04T06:26:58;99866.03;;;29.74;41.35
55576;BME280;41437;45.478;9.116;2022-08-04T06:30:01;99849.31;;;29.65;41.48
55576;BME280;41437;45.478;9.116;2022-08-04T06:33:08;99864.03;;;29.74;41.50
55576;BME280;41437;45.478;9.116;2022-08-04T06:36:24;99861.19;;;29.74;41.50
55576;BME280;41437;45.478;9.116;2022-08-04T06:39:28;99870.50;;;29.75;41.48
55576;BME280;41437;45.478;9.116;2022-08-04T06:42:31;99869.31;;;29.76;41.43
55576;BME280;41437;45.478;9.116;2022-08-04T06:45:36;99874.97;;;29.76;41.71
55576;BME280;41437;45.478;9.116;2022-08-04T06:48:38;99861.94;;;29.71;41.72
55576;BME280;41437;45.478;9.116;2022-08-04T06:51:40;99870.94;;;29.77;41.75
55576;BME280;41437;45.478;9.116;2022-08-04T06:54:44;99869.75;;;29.78;41.80
55576;BME280;41437;45.478;9.116;2022-08-04T06:57:46;99867.69;;;29.75;41.82
55576;BME280;41437;45.478;9.116;2022-08-04T07:00:49;99863.22;;;29.74;42.24
55576;BME280;41437;45.478;9.116;2022-08-04T07:03:52;99873.00;;;29.80;42.00
55576;BME280;41437;45.478;9.116;2022-08-04T07:06:53;99863.22;;;29.74;42.12
55576;BME280;41437;45.478;9.116;2022-08-04T07:09:57;99871.78;;;29.81;42.22
55576;BME280;41437;45.478;9.116;2022-08-04T07:13:00;99876.25;;;29.82;42.24
55576;BME280;41437;45.478;9.116;2022-08-04T07:16:02;99862.03;;;29.78;42.15
55576;BME280;41437;45.478;9.116;2022-08-04T07:19:05;99875.47;;;29.85;42.37
55576;BME280;41437;45.478;9.116;2022-08-04T07:22:07;99874.25;;;29.86;42.43
55576;BME280;41437;45.478;9.116;2022-08-04T07:25:12;99869.44;;;29.87;42.20
55576;BME280;41437;45.478;9.116;2022-08-04T07:28:15;99864.13;;;29.85;42.58
55576;BME280;41437;45.478;9.116;2022-08-04T07:31:18;99859.66;;;29.84;42.62
55576;BME280;41437;45.478;9.116;2022-08-04T07:34:23;99865.78;;;29.90;42.30
55576;BME280;41437;45.478;9.116;2022-08-04T07:37:25;99867.41;;;29.91;42.69
55576;BME280;41437;45.478;9.116;2022-08-04T07:40:29;99860.91;;;29.90;42.47
55576;BME280;41437;45.478;9.116;2022-08-04T07:43:31;99863.78;;;29.94;42.55
55576;BME280;41437;45.478;9.116;2022-08-04T07:46:33;99853.25;;;29.94;42.89
55576;BME280;41437;45.478;9.116;2022-08-04T07:49:35;99851.22;;;29.95;42.66
55576;BME280;41437;45.478;9.116;2022-08-04T07:52:37;99852.06;;;29.95;42.80
55576;BME280;41437;45.478;9.116;2022-08-04T07:55:40;99861.00;;;29.97;42.99
55576;BME280;41437;45.478;9.116;2022-08-04T07:58:42;99852.06;;;29.95;42.75
55576;BME280;41437;45.478;9.116;2022-08-04T08:01:44;99850.84;;;29.96;42.73
55576;BME280;41437;45.478;9.116;2022-08-04T08:04:47;99855.31;;;29.97;42.83
55576;BME280;41437;45.478;9.116;2022-08-04T08:07:49;99859.41;;;30.03;42.82
55576;BME280;41437;45.478;9.116;2022-08-04T08:10:52;99852.47;;;29.97;42.66
55576;BME280;41437;45.478;9.116;2022-08-04T08:13:55;99847.19;;;29.99;42.81
55576;BME280;41437;45.478;9.116;2022-08-04T08:16:58;99843.97;;;30.01;42.79
55576;BME280;41437;45.478;9.116;2022-08-04T08:20:02;99853.72;;;30.03;43.12
55576;BME280;41437;45.478;9.116;2022-08-04T08:23:04;99850.88;;;30.03;42.99
55576;BME280;41437;45.478;9.116;2022-08-04T08:26:09;99848.91;;;30.08;42.96
55576;BME280;41437;45.478;9.116;2022-08-04T08:29:11;99855.44;;;30.12;43.17
55576;BME280;41437;45.478;9.116;2022-08-04T08:32:14;99857.03;;;30.13;43.10
55576;BME280;41437;45.478;9.116;2022-08-04T08:35:17;99846.44;;;30.06;43.02
55576;BME280;41437;45.478;9.116;2022-08-04T08:38:28;99839.19;;;30.12;43.16
55576;BME280;41437;45.478;9.116;2022-08-04T08:42:23;99844.06;;;30.12;43.18
55576;BME280;41437;45.478;9.116;2022-08-04T08:45:45;99857.16;;;30.20;43.16
55576;BME280;41437;45.478;9.116;2022-08-04T08:49:04;99848.22;;;30.21;43.10
55576;BME280;41437;45.478;9.116;2022-08-04T08:52:22;99827.81;;;30.12;43.07
55576;BME280;41437;45.478;9.116;2022-08-04T08:55:31;99844.16;;;30.19;43.05
55576;BME280;41437;45.478;9.116;2022-08-04T08:58:47;99844.22;;;30.26;43.23
55576;BME280;41437;45.478;9.116;2022-08-04T09:02:05;99839.31;;;30.23;43.27
55576;BME280;41437;45.478;9.116;2022-08-04T09:05:42;99840.53;;;30.25;43.36
55576;BME280;41437;45.478;9.116;2022-08-04T09:09:03;99836.09;;;30.28;43.30
55576;BME280;41437;45.478;9.116;2022-08-04T09:12:13;99840.91;;;30.20;40.04
55576;BME280;41437;45.478;9.116;2022-08-04T09:15:23;99845.16;;;29.96;40.29
55576;BME280;41437;45.478;9.116;2022-08-04T09:18:31;99839.69;;;29.77;40.57
55576;BME280;41437;45.478;9.116;2022-08-04T09:21:38;99841.03;;;29.90;40.59
55576;BME280;41437;45.478;9.116;2022-08-04T09:24:49;99841.47;;;29.92;42.50
55576;BME280;41437;45.478;9.116;2022-08-04T09:27:55;99842.63;;;30.32;41.36
55576;BME280;41437;45.478;9.116;2022-08-04T09:31:05;99838.53;;;30.26;40.68
55576;BME280;41437;45.478;9.116;2022-08-04T09:34:10;99832.88;;;30.33;40.50
55576;BME280;41437;45.478;9.116;2022-08-04T09:37:24;99834.50;;;30.34;42.04
55576;BME280;41437;45.478;9.116;2022-08-04T09:41:15;99847.44;;;31.74;39.93
55576;BME280;41437;45.478;9.116;2022-08-04T09:58:45;99822.41;;;31.14;38.60
55576;BME280;41437;45.478;9.116;2022-08-04T10:01:55;99805.25;;;30.92;43.62
55576;BME280;41437;45.478;9.116;2022-08-04T10:04:59;99813.03;;;31.17;37.86
55576;BME280;41437;45.478;9.116;2022-08-04T10:08:20;99819.56;;;31.14;38.21
55576;BME280;41437;45.478;9.116;2022-08-04T10:11:34;99812.19;;;31.02;38.43
55576;BME280;41437;45.478;9.116;2022-08-04T10:14:48;99798.34;;;30.93;38.55
55576;BME280;41437;45.478;9.116;2022-08-04T10:18:04;99792.59;;;30.86;38.70
55576;BME280;41437;45.478;9.116;2022-08-04T10:21:16;99787.06;;;31.25;37.33
55576;BME280;41437;45.478;9.116;2022-08-04T10:24:30;99783.06;;;32.59;34.91
55576;BME280;41437;45.478;9.116;2022-08-04T10:27:39;99791.31;;;33.44;33.79
55576;BME280;41437;45.478;9.116;2022-08-04T10:30:48;99791.50;;;33.75;31.27
55576;BME280;41437;45.478;9.116;2022-08-04T10:33:54;99790.72;;;33.74;32.17
55576;BME280;41437;45.478;9.116;2022-08-04T10:37:04;99787.47;;;34.21;31.76
55576;BME280;41437;45.478;9.116;2022-08-04T10:40:13;99781.53;;;34.80;31.17
55576;BME280;41437;45.478;9.116;2022-08-04T10:43:41;99786.44;;;35.44;30.67
55576;BME280;41437;45.478;9.116;2022-08-04T10:46:51;99789.72;;;35.43;30.62
55576;BME280;41437;45.478;9.116;2022-08-04T10:49:54;99778.22;;;36.00;29.32
55576;BME280;41437;45.478;9.116;2022-08-04T10:53:02;99773.97;;;36.32;29.27
55576;BME280;41437;45.478;9.116;2022-08-04T10:56:12;99781.81;;;36.05;30.26
55576;BME280;41437;45.478;9.116;2022-08-04T10:59:19;99779.94;;;36.18;30.06
55576;BME280;41437;45.478;9.116;2022-08-04T11:02:33;99774.72;;;36.13;29.81
55576;BME280;41437;45.478;9.116;2022-08-04T11:05:42;99772.19;;;35.68;29.90
55576;BME280;41437;45.478;9.116;2022-08-04T11:08:48;99768.66;;;34.99;30.04
55576;BME280;41437;45.478;9.116;2022-08-04T11:11:53;99765.78;;;34.95;30.81
55576;BME280;41437;45.478;9.116;2022-08-04T11:14:59;99753.41;;;34.75;30.91
55576;BME280;41437;45.478;9.116;2022-08-04T11:18:09;99765.94;;;35.19;31.04
55576;BME280;41437;45.478;9.116;2022-08-04T11:21:16;99759.84;;;35.71;30.32
55576;BME280;41437;45.478;9.116;2022-08-04T11:24:24;99766.41;;;35.95;29.92
55576;BME280;41437;45.478;9.116;2022-08-04T11:27:32;99753.03;;;35.61;30.00
55576;BME280;41437;45.478;9.116;2022-08-04T11:30:39;99751.84;;;35.59;30.23
55576;BME280;41437;45.478;9.116;2022-08-04T11:33:49;99750.13;;;35.65;29.77
55576;BME280;41437;45.478;9.116;2022-08-04T11:36:58;99756.03;;;36.05;29.14
55576;BME280;41437;45.478;9.116;2022-08-04T11:40:10;99747.53;;;36.21;28.64
55576;BME280;41437;45.478;9.116;2022-08-04T11:43:26;99738.44;;;35.79;28.22
55576;BME280;41437;45.478;9.116;2022-08-04T11:46:36;99746.13;;;35.59;29.23
55576;BME280;41437;45.478;9.116;2022-08-04T11:49:44;99747.09;;;35.75;29.43
55576;BME280;41437;45.478;9.116;2022-08-04T11:52:49;99745.47;;;36.21;28.86
55576;BME280;41437;45.478;9.116;2022-08-04T11:55:54;99747.00;;;36.06;28.74
55576;BME280;41437;45.478;9.116;2022-08-04T11:58:59;99739.78;;;36.41;28.46
55576;BME280;41437;45.478;9.116;2022-08-04T12:02:18;99733.28;;;36.37;28.78
55576;BME280;41437;45.478;9.116;2022-08-04T12:05:30;99734.31;;;36.27;28.43
55576;BME280;41437;45.478;9.116;2022-08-04T12:08:42;99732.50;;;35.90;29.27
55576;BME280;41437;45.478;9.116;2022-08-04T12:12:01;99725.75;;;35.53;29.44
55576;BME280;41437;45.478;9.116;2022-08-04T12:15:15;99732.56;;;35.63;29.54
55576;BME280;41437;45.478;9.116;2022-08-04T12:18:22;99731.56;;;35.46;29.30
55576;BME280;41437;45.478;9.116;2022-08-04T12:21:34;99719.94;;;35.57;30.89
55576;BME280;41437;45.478;9.116;2022-08-04T12:24:43;99725.59;;;36.11;29.70
55576;BME280;41437;45.478;9.116;2022-08-04T12:27:46;99708.13;;;36.25;29.34
55576;BME280;41437;45.478;9.116;2022-08-04T12:30:52;99715.47;;;36.49;28.74
55576;BME280;41437;45.478;9.116;2022-08-04T12:33:59;99713.22;;;36.37;29.21
55576;BME280;41437;45.478;9.116;2022-08-04T12:37:17;99705.06;;;36.56;28.99
55576;BME280;41437;45.478;9.116;2022-08-04T12:40:26;99700.81;;;36.64;28.10
55576;BME280;41437;45.478;9.116;2022-08-04T12:43:35;99700.28;;;36.69;28.00
55576;BME280;41437;45.478;9.116;2022-08-04T12:46:39;99689.38;;;36.60;27.64
55576;BME280;41437;45.478;9.116;2022-08-04T12:49:46;99695.97;;;35.94;28.84
55576;BME280;41437;45.478;9.116;2022-08-04T12:52:53;99694.34;;;35.69;29.16
55576;BME280;41437;45.478;9.116;2022-08-04T12:55:56;99693.25;;;35.63;29.42
55576;BME280;41437;45.478;9.116;2022-08-04T12:59:01;99690.44;;;35.60;29.97
55576;BME280;41437;45.478;9.116;2022-08-04T13:02:05;99672.84;;;35.81;29.13
55576;BME280;41437;45.478;9.116;2022-08-04T13:05:10;99683.97;;;35.79;28.86
55576;BME280;41437;45.478;9.116;2022-08-04T13:08:19;99688.59;;;35.96;28.46
55576;BME280;41437;45.478;9.116;2022-08-04T13:11:21;99689.19;;;36.08;27.79
55576;BME280;41437;45.478;9.116;2022-08-04T13:14:27;99686.56;;;36.37;27.54
55576;BME280;41437;45.478;9.116;2022-08-04T13:17:41;99672.63;;;36.59;26.64
55576;BME280;41437;45.478;9.116;2022-08-04T13:20:46;99684.38;;;36.84;26.60
55576;BME280;41437;45.478;9.116;2022-08-04T13:23:55;99688.47;;;36.83;26.57
55576;BME280;41437;45.478;9.116;2022-08-04T13:27:02;99686.72;;;36.69;26.28
55576;BME280;41437;45.478;9.116;2022-08-04T13:30:06;99679.53;;;36.61;26.10
55576;BME280;41437;45.478;9.116;2022-08-04T13:33:08;99667.22;;;36.61;25.94
55576;BME280;41437;45.478;9.116;2022-08-04T13:36:11;99672.41;;;36.49;26.18
55576;BME280;41437;45.478;9.116;2022-08-04T13:39:17;99665.25;;;35.94;25.05
55576;BME280;41437;45.478;9.116;2022-08-04T13:42:21;99664.06;;;36.15;26.52
55576;BME280;41437;45.478;9.116;2022-08-04T13:45:25;99658.13;;;36.46;25.58
55576;BME280;41437;45.478;9.116;2022-08-04T13:48:31;99656.78;;;36.11;25.85
55576;BME280;41437;45.478;9.116;2022-08-04T13:51:38;99659.44;;;36.41;26.17
55576;BME280;41437;45.478;9.116;2022-08-04T13:54:44;99653.66;;;36.81;25.75
55576;BME280;41437;45.478;9.116;2022-08-04T13:57:50;99642.09;;;37.21;24.60
55576;BME280;41437;45.478;9.116;2022-08-04T14:00:58;99626.75;;;37.28;24.64
55576;BME280;41437;45.478;9.116;2022-08-04T14:04:03;99653.03;;;37.26;24.30
55576;BME280;41437;45.478;9.116;2022-08-04T14:07:12;99645.91;;;37.67;24.29
55576;BME280;41437;45.478;9.116;2022-08-04T14:10:15;99635.56;;;37.86;23.95
55576;BME280;41437;45.478;9.116;2022-08-04T14:13:28;99635.25;;;37.96;24.07
55576;BME280;41437;45.478;9.116;2022-08-04T14:16:30;99629.53;;;37.64;23.48
55576;BME280;41437;45.478;9.116;2022-08-04T14:19:47;99631.97;;;37.33;23.94
55576;BME280;41437;45.478;9.116;2022-08-04T14:23:01;99612.91;;;37.06;24.40
55576;BME280;41437;45.478;9.116;2022-08-04T14:26:21;99627.53;;;37.12;23.89
55576;BME280;41437;45.478;9.116;2022-08-04T14:29:23;99614.69;;;37.00;24.09
55576;BME280;41437;45.478;9.116;2022-08-04T14:32:25;99623.41;;;36.96;24.25
55576;BME280;41437;45.478;9.116;2022-08-04T14:35:27;99615.00;;;36.86;24.76
55576;BME280;41437;45.478;9.116;2022-08-04T14:38:53;99612.94;;;36.86;24.02
55576;BME280;41437;45.478;9.116;2022-08-04T14:41:58;99618.59;;;37.10;24.02
55576;BME280;41437;45.478;9.116;2022-08-04T14:45:13;99609.41;;;37.31;23.79
55576;BME280;41437;45.478;9.116;2022-08-04T14:48:15;99609.81;;;37.50;22.82
55576;BME280;41437;45.478;9.116;2022-08-04T14:51:16;99611.59;;;37.43;23.02
55576;BME280;41437;45.478;9.116;2022-08-04T14:54:25;99610.41;;;37.57;23.24
55576;BME280;41437;45.478;9.116;2022-08-04T14:57:28;99604.50;;;37.48;22.90
55576;BME280;41437;45.478;9.116;2022-08-04T15:00:32;99607.66;;;37.54;22.68
55576;BME280;41437;45.478;9.116;2022-08-04T15:03:38;99601.31;;;37.75;22.65
55576;BME280;41437;45.478;9.116;2022-08-04T15:06:40;99596.16;;;37.83;22.59
55576;BME280;41437;45.478;9.116;2022-08-04T15:09:42;99606.25;;;38.20;22.03
55576;BME280;41437;45.478;9.116;2022-08-04T15:12:45;99608.16;;;38.10;21.99
55576;BME280;41437;45.478;9.116;2022-08-04T15:15:47;99600.91;;;38.06;21.89
55576;BME280;41437;45.478;9.116;2022-08-04T15:18:52;99592.72;;;37.59;21.33
55576;BME280;41437;45.478;9.116;2022-08-04T15:21:54;99586.44;;;37.15;22.10
55576;BME280;41437;45.478;9.116;2022-08-04T15:24:56;99599.38;;;37.23;21.98
55576;BME280;41437;45.478;9.116;2022-08-04T15:28:00;99599.69;;;37.74;20.85
55576;BME280;41437;45.478;9.116;2022-08-04T15:31:03;99593.22;;;37.86;21.21
55576;BME280;41437;45.478;9.116;2022-08-04T15:34:06;99598.16;;;37.86;21.52
55576;BME280;41437;45.478;9.116;2022-08-04T15:37:08;99591.13;;;37.41;22.61
55576;BME280;41437;45.478;9.116;2022-08-04T15:40:13;99587.50;;;37.21;22.60
55576;BME280;41437;45.478;9.116;2022-08-04T15:43:31;99581.38;;;37.35;23.19
55576;BME280;41437;45.478;9.116;2022-08-04T15:47:11;99581.69;;;37.41;22.09
55576;BME280;41437;45.478;9.116;2022-08-04T15:50:13;99578.84;;;37.70;22.02
55576;BME280;41437;45.478;9.116;2022-08-04T15:53:15;99578.38;;;37.42;21.87
55576;BME280;41437;45.478;9.116;2022-08-04T15:56:42;99576.56;;;37.32;21.93
55576;BME280;41437;45.478;9.116;2022-08-04T16:00:03;99582.41;;;37.45;21.45
55576;BME280;41437;45.478;9.116;2022-08-04T16:03:06;99578.00;;;37.08;21.83
55576;BME280;41437;45.478;9.116;2022-08-04T16:06:42;99575.06;;;36.75;22.82
55576;BME280;41437;45.478;9.116;2022-08-04T16:09:45;99576.13;;;37.01;22.18
55576;BME280;41437;45.478;9.116;2022-08-04T16:12:53;99575.84;;;37.12;21.63
55576;BME280;41437;45.478;9.116;2022-08-04T16:15:56;99568.13;;;37.09;21.51
55576;BME280;41437;45.478;9.116;2022-08-04T16:19:03;99568.41;;;36.78;22.48
55576;BME280;41437;45.478;9.116;2022-08-04T16:22:10;99563.84;;;36.81;22.25
55576;BME280;41437;45.478;9.116;2022-08-04T16:25:13;99568.91;;;37.09;22.90
55576;BME280;41437;45.478;9.116;2022-08-04T16:28:36;99570.25;;;36.88;22.07
55576;BME280;41437;45.478;9.116;2022-08-04T16:35:26;99561.03;;;36.61;22.74
55576;BME280;41437;45.478;9.116;2022-08-04T16:38:29;99560.69;;;36.59;22.08
55576;BME280;41437;45.478;9.116;2022-08-04T16:41:40;99566.66;;;36.48;22.10
55576;BME280;41437;45.478;9.116;2022-08-04T16:44:42;99563.28;;;36.33;21.76
55576;BME280;41437;45.478;9.116;2022-08-04T16:47:59;99568.28;;;36.29;21.61
55576;BME280;41437;45.478;9.116;2022-08-04T16:51:02;99563.00;;;36.28;21.96
55576;BME280;41437;45.478;9.116;2022-08-04T16:54:07;99559.81;;;36.22;21.81
55576;BME280;41437;45.478;9.116;2022-08-04T16:57:09;99560.28;;;36.20;22.94
55576;BME280;41437;45.478;9.116;2022-08-04T17:00:11;99565.00;;;36.11;22.95
55576;BME280;41437;45.478;9.116;2022-08-04T17:03:13;99553.06;;;35.92;23.23
55576;BME280;41437;45.478;9.116;2022-08-04T17:06:15;99554.13;;;35.79;23.58
55576;BME280;41437;45.478;9.116;2022-08-04T17:09:19;99557.44;;;35.77;23.82
55576;BME280;41437;45.478;9.116;2022-08-04T17:12:27;99540.44;;;35.23;24.81
55576;BME280;41437;45.478;9.116;2022-08-04T17:15:29;99550.06;;;34.82;26.27
55576;BME280;41437;45.478;9.116;2022-08-04T17:18:32;99542.31;;;34.56;26.59
55576;BME280;41437;45.478;9.116;2022-08-04T17:21:35;99536.84;;;34.34;26.88